Time,TemperatureF,DewpointF,PressureIn,WindDirection,WindDirectionDegrees,WindSpeedMPH,WindSpeedGustMPH,Humidity,HourlyPrecipIn,Conditions,Clouds,dailyrainin,SolarRadiationWatts/m^2,SoftwareType,DateUTC
2013-06-18 00:02:00,61.0,50.0,-100.00,West,263,3.0,8.0,68,0.00,,,0.02,1.000000,,2013-06-18 07:02:00,
2013-06-18 00:33:00,59.0,51.0,-100.00,ENE,64,0.0,4.0,76,0.00,,,0.02,1.000000,,2013-06-18 07:33:00,
2013-06-18 00:43:00,59.0,51.0,-100.00,ENE,64,0.0,4.0,76,0.00,,,0.02,1.000000,,2013-06-18 07:43:00,
2013-06-18 00:53:00,59.0,51.0,-100.00,ENE,64,0.0,4.0,76,0.00,,,0.02,1.000000,,2013-06-18 07:53:00,
2013-06-18 01:01:00,59.0,51.0,-100.00,ENE,64,0.0,4.0,76,0.00,,,0.02,1.000000,,2013-06-18 08:01:00,
2013-06-18 01:33:00,58.0,52.0,-100.00,SE,127,3.0,6.0,79,0.00,,,0.02,1.000000,,2013-06-18 08:33:00,
2013-06-18 01:43:00,58.0,52.0,-100.00,SE,127,3.0,6.0,79,0.00,,,0.02,1.000000,,2013-06-18 08:43:00,
2013-06-18 01:52:00,58.0,52.0,-100.00,SE,127,3.0,6.0,79,0.00,,,0.02,1.000000,,2013-06-18 08:52:00,
2013-06-18 02:01:00,58.0,52.0,-100.00,SE,127,3.0,6.0,79,0.00,,,0.02,1.000000,,2013-06-18 09:01:00,
2013-06-18 02:34:00,57.0,51.0,-100.00,SE,124,4.0,7.0,79,0.00,,,0.02,1.000000,,2013-06-18 09:34:00,
2013-06-18 02:43:00,57.0,51.0,-100.00,SE,124,4.0,7.0,79,0.00,,,0.02,1.000000,,2013-06-18 09:43:00,
2013-06-18 02:53:00,57.0,51.0,-100.00,SE,124,4.0,7.0,79,0.00,,,0.02,1.000000,,2013-06-18 09:53:00,
2013-06-18 03:01:00,57.0,51.0,-100.00,SE,124,4.0,7.0,79,0.00,,,0.02,1.000000,,2013-06-18 10:01:00,
2013-06-18 03:33:00,57.0,50.0,-100.00,ESE,113,3.0,6.0,78,0.00,,,0.02,1.000000,,2013-06-18 10:33:00,
2013-06-18 03:43:00,57.0,50.0,-100.00,ESE,113,3.0,6.0,78,0.00,,,0.02,1.000000,,2013-06-18 10:43:00,
2013-06-18 03:53:00,57.0,50.0,-100.00,ESE,113,3.0,6.0,78,0.00,,,0.02,1.000000,,2013-06-18 10:53:00,
2013-06-18 04:02:00,57.0,50.0,-100.00,ESE,113,3.0,6.0,78,0.00,,,0.02,1.000000,,2013-06-18 11:02:00,
2013-06-18 04:32:00,55.0,48.0,-100.00,SSE,164,5.0,7.0,78,0.00,,,0.02,1.000000,,2013-06-18 11:32:00,
2013-06-18 04:43:00,55.0,48.0,-100.00,SSE,164,5.0,7.0,78,0.00,,,0.02,1.000000,,2013-06-18 11:43:00,
2013-06-18 04:52:00,55.0,48.0,-100.00,SSE,164,5.0,7.0,78,0.00,,,0.02,1.000000,,2013-06-18 11:52:00,
2013-06-18 05:01:00,55.0,48.0,-100.00,SSE,164,5.0,7.0,78,0.00,,,0.02,1.000000,,2013-06-18 12:01:00,
2013-06-18 05:33:00,52.0,46.0,-100.00,SSE,164,7.0,8.0,81,0.00,,,-99.99,1.000000,,2013-06-18 12:33:00,
2013-06-18 05:43:00,52.0,46.0,-100.00,SSE,164,7.0,8.0,81,0.00,,,-99.99,1.000000,,2013-06-18 12:43:00,
2013-06-18 05:52:00,52.0,46.0,-100.00,SSE,164,7.0,8.0,81,0.00,,,-99.99,1.000000,,2013-06-18 12:52:00,
2013-06-18 06:01:00,52.0,46.0,-100.00,SSE,164,7.0,8.0,81,0.00,,,-99.99,1.000000,,2013-06-18 13:01:00,
2013-06-18 06:33:00,54.0,48.0,-100.00,SE,132,4.0,8.0,79,0.01,,,0.03,8.000000,,2013-06-18 13:33:00,
2013-06-18 06:43:00,54.0,48.0,-100.00,SE,132,4.0,8.0,79,0.01,,,0.03,8.000000,,2013-06-18 13:43:00,
2013-06-18 06:53:00,54.0,48.0,-100.00,SE,132,4.0,8.0,79,0.01,,,0.03,8.000000,,2013-06-18 13:53:00,
2013-06-18 07:02:00,54.0,48.0,-100.00,SE,132,4.0,8.0,79,0.01,,,0.03,8.000000,,2013-06-18 14:02:00,
2013-06-18 07:33:00,57.0,49.0,-100.00,WSW,254,1.0,4.0,74,0.00,,,0.03,55.000000,,2013-06-18 14:33:00,
2013-06-18 07:43:00,57.0,49.0,-100.00,WSW,254,1.0,4.0,74,0.00,,,0.03,55.000000,,2013-06-18 14:43:00,
2013-06-18 07:53:00,57.0,49.0,-100.00,WSW,254,1.0,4.0,74,0.00,,,0.03,55.000000,,2013-06-18 14:53:00,
2013-06-18 08:02:00,57.0,49.0,-100.00,WSW,254,1.0,4.0,74,0.00,,,0.03,55.000000,,2013-06-18 15:02:00,
2013-06-18 08:33:00,57.0,46.0,-100.00,West,281,4.0,8.0,66,0.00,,,0.03,97.000000,,2013-06-18 15:33:00,
2013-06-18 08:43:00,57.0,46.0,-100.00,West,281,4.0,8.0,66,0.00,,,0.03,97.000000,,2013-06-18 15:43:00,
2013-06-18 08:53:00,57.0,46.0,-100.00,West,281,4.0,8.0,66,0.00,,,0.03,97.000000,,2013-06-18 15:53:00,
2013-06-18 09:01:00,57.0,46.0,-100.00,West,281,4.0,8.0,66,0.00,,,0.03,97.000000,,2013-06-18 16:01:00,
2013-06-18 09:33:00,59.0,46.0,-100.00,SSW,199,4.0,8.0,61,0.00,,,0.03,161.000000,,2013-06-18 16:33:00,
2013-06-18 09:43:00,59.0,46.0,-100.00,SSW,199,4.0,8.0,61,0.00,,,0.03,161.000000,,2013-06-18 16:43:00,
2013-06-18 09:53:00,59.0,46.0,-100.00,SSW,199,4.0,8.0,61,0.00,,,0.03,161.000000,,2013-06-18 16:53:00,
2013-06-18 10:01:00,59.0,46.0,-100.00,SSW,199,4.0,8.0,61,0.00,,,0.03,161.000000,,2013-06-18 17:01:00,
2013-06-18 10:34:00,61.0,48.0,-100.00,South,183,4.0,10.0,62,0.00,,,0.03,194.000000,,2013-06-18 17:34:00,
2013-06-18 10:43:00,61.0,48.0,-100.00,South,183,4.0,10.0,62,0.00,,,0.03,194.000000,,2013-06-18 17:43:00,
2013-06-18 10:53:00,61.0,48.0,-100.00,South,183,4.0,10.0,62,0.00,,,0.03,194.000000,,2013-06-18 17:53:00,
2013-06-18 11:01:00,61.0,48.0,-100.00,South,183,4.0,10.0,62,0.00,,,0.03,194.000000,,2013-06-18 18:01:00,
2013-06-18 11:33:00,62.0,44.0,-100.00,SW,218,5.0,11.0,51,0.00,,,0.03,461.000000,,2013-06-18 18:33:00,
2013-06-18 11:42:00,62.0,44.0,-100.00,SW,218,5.0,11.0,51,0.00,,,0.03,461.000000,,2013-06-18 18:42:00,
2013-06-18 11:53:00,62.0,44.0,-100.00,SW,218,5.0,11.0,51,0.00,,,0.03,461.000000,,2013-06-18 18:53:00,
2013-06-18 12:01:00,62.0,44.0,-100.00,SW,218,5.0,11.0,51,0.00,,,0.03,461.000000,,2013-06-18 19:01:00,
2013-06-18 12:33:00,64.0,48.0,-100.00,South,184,7.0,14.0,56,0.00,,,0.03,478.000000,,2013-06-18 19:33:00,
2013-06-18 12:43:00,64.0,48.0,-100.00,South,184,7.0,14.0,56,0.00,,,0.03,478.000000,,2013-06-18 19:43:00,
2013-06-18 12:52:00,64.0,48.0,-100.00,South,184,7.0,14.0,56,0.00,,,0.03,478.000000,,2013-06-18 19:52:00,
2013-06-18 13:01:00,64.0,48.0,-100.00,South,184,7.0,14.0,56,0.00,,,0.03,478.000000,,2013-06-18 20:01:00,
2013-06-18 13:33:00,64.0,45.0,-100.00,SE,140,8.0,15.0,50,0.00,,,0.03,656.000000,,2013-06-18 20:33:00,
2013-06-18 13:43:00,64.0,45.0,-100.00,SE,140,8.0,15.0,50,0.00,,,0.03,656.000000,,2013-06-18 20:43:00,
2013-06-18 13:52:00,64.0,45.0,-100.00,SE,140,8.0,15.0,50,0.00,,,0.03,656.000000,,2013-06-18 20:52:00,
2013-06-18 14:01:00,64.0,45.0,-100.00,SE,140,8.0,15.0,50,0.00,,,0.03,656.000000,,2013-06-18 21:01:00,
2013-06-18 14:33:00,65.0,41.0,-100.00,South,175,11.0,17.0,41,0.00,,,-99.99,432.000000,,2013-06-18 21:33:00,
2013-06-18 14:43:00,65.0,41.0,-100.00,South,175,11.0,17.0,41,0.00,,,-99.99,432.000000,,2013-06-18 21:43:00,
2013-06-18 14:52:00,65.0,41.0,-100.00,South,175,11.0,17.0,41,0.00,,,-99.99,432.000000,,2013-06-18 21:52:00,
2013-06-18 15:01:00,65.0,41.0,-100.00,South,175,11.0,17.0,41,0.00,,,-99.99,432.000000,,2013-06-18 22:01:00,
2013-06-18 15:34:00,63.0,41.0,-100.00,SSE,164,10.0,17.0,44,0.00,,,0.03,331.000000,,2013-06-18 22:34:00,
2013-06-18 15:43:00,63.0,41.0,-100.00,SSE,164,10.0,17.0,44,0.00,,,0.03,331.000000,,2013-06-18 22:43:00,
2013-06-18 15:53:00,63.0,41.0,-100.00,SSE,164,10.0,17.0,44,0.00,,,0.03,331.000000,,2013-06-18 22:53:00,
2013-06-18 16:01:00,63.0,41.0,-100.00,SSE,164,10.0,17.0,44,0.00,,,0.03,331.000000,,2013-06-18 23:01:00,
2013-06-18 16:39:00,65.0,40.0,-100.00,South,182,11.0,15.0,40,0.00,,,0.03,447.000000,,2013-06-18 23:39:00,
2013-06-18 16:48:00,65.0,40.0,-100.00,South,182,11.0,15.0,40,0.00,,,0.03,447.000000,,2013-06-18 23:48:00,
2013-06-18 16:53:00,65.0,40.0,-100.00,South,182,11.0,15.0,40,0.00,,,0.03,447.000000,,2013-06-18 23:53:00,
2013-06-18 17:01:00,65.0,40.0,-100.00,South,182,11.0,15.0,40,0.00,,,0.03,447.000000,,2013-06-19 00:01:00,
2013-06-18 17:33:00,66.0,43.0,-100.00,East,98,10.0,16.0,43,0.00,,,0.03,392.000000,,2013-06-19 00:33:00,
2013-06-18 17:43:00,66.0,43.0,-100.00,East,98,10.0,16.0,43,0.00,,,0.03,392.000000,,2013-06-19 00:43:00,
2013-06-18 17:53:00,66.0,43.0,-100.00,East,98,10.0,16.0,43,0.00,,,0.03,392.000000,,2013-06-19 00:53:00,
2013-06-18 18:01:00,66.0,43.0,-100.00,East,98,10.0,16.0,43,0.00,,,0.03,392.000000,,2013-06-19 01:01:00,
2013-06-18 18:32:00,65.0,46.0,-100.00,East,93,10.0,18.0,50,0.00,,,0.03,553.000000,,2013-06-19 01:32:00,
2013-06-18 18:43:00,65.0,46.0,-100.00,East,93,10.0,18.0,50,0.00,,,0.03,553.000000,,2013-06-19 01:43:00,
2013-06-18 18:53:00,65.0,46.0,-100.00,East,93,10.0,18.0,50,0.00,,,0.03,553.000000,,2013-06-19 01:53:00,
2013-06-18 19:01:00,65.0,46.0,-100.00,East,93,10.0,18.0,50,0.00,,,0.03,553.000000,,2013-06-19 02:01:00,
2013-06-18 19:32:00,64.0,45.0,-100.00,SSW,206,9.0,13.0,50,0.00,,,0.03,346.000000,,2013-06-19 02:32:00,
2013-06-18 19:42:00,64.0,45.0,-100.00,SSW,206,9.0,13.0,50,0.00,,,0.03,346.000000,,2013-06-19 02:42:00,
2013-06-18 19:52:00,64.0,45.0,-100.00,SSW,206,9.0,13.0,50,0.00,,,0.03,346.000000,,2013-06-19 02:52:00,
2013-06-18 20:01:00,64.0,45.0,-100.00,SSW,206,9.0,13.0,50,0.00,,,0.03,346.000000,,2013-06-19 03:01:00,
2013-06-18 20:33:00,59.0,44.0,-100.00,North,6,11.0,16.0,57,0.00,,,0.02,83.000000,,2013-06-19 03:33:00,
2013-06-18 20:43:00,59.0,44.0,-100.00,North,6,11.0,16.0,57,0.00,,,0.02,83.000000,,2013-06-19 03:43:00,
2013-06-18 20:52:00,59.0,44.0,-100.00,North,6,11.0,16.0,57,0.00,,,0.02,83.000000,,2013-06-19 03:52:00,
2013-06-18 21:01:00,59.0,44.0,-100.00,North,6,11.0,16.0,57,0.00,,,0.02,83.000000,,2013-06-19 04:01:00,
2013-06-18 21:33:00,58.0,44.0,-100.00,NNW,341,7.0,18.0,59,0.00,,,0.01,14.000000,,2013-06-19 04:33:00,
2013-06-18 21:43:00,58.0,44.0,-100.00,NNW,341,7.0,18.0,59,0.00,,,0.01,14.000000,,2013-06-19 04:43:00,
2013-06-18 21:53:00,58.0,44.0,-100.00,NNW,341,7.0,18.0,59,0.00,,,0.01,14.000000,,2013-06-19 04:53:00,
2013-06-18 22:01:00,58.0,44.0,-100.00,NNW,341,7.0,18.0,59,0.00,,,0.01,14.000000,,2013-06-19 05:01:00,
2013-06-18 22:32:00,56.0,43.0,-100.00,NW,321,5.0,11.0,61,0.00,,,0.01,1.000000,,2013-06-19 05:32:00,
2013-06-18 22:43:00,56.0,43.0,-100.00,NW,321,5.0,11.0,61,0.00,,,0.01,1.000000,,2013-06-19 05:43:00,
2013-06-18 22:52:00,56.0,43.0,-100.00,NW,321,5.0,11.0,61,0.00,,,0.01,1.000000,,2013-06-19 05:52:00,
2013-06-18 23:01:00,56.0,43.0,-100.00,NW,321,5.0,11.0,61,0.00,,,0.01,1.000000,,2013-06-19 06:01:00,
2013-06-18 23:34:00,56.0,45.0,-100.00,West,263,6.0,13.0,67,0.00,,,0.01,1.000000,,2013-06-19 06:34:00,
2013-06-18 23:43:00,56.0,45.0,-100.00,West,263,6.0,13.0,67,0.00,,,0.01,1.000000,,2013-06-19 06:43:00,
2013-06-18 23:52:00,56.0,45.0,-100.00,West,263,6.0,13.0,67,0.00,,,0.01,1.000000,,2013-06-19 06:52:00,